createdAt,value
2022-10-25T00:00:52.061Z,83.41674805
2022-10-25T00:01:52.702Z,83.5144043
2022-10-25T00:02:52.929Z,83.5144043
2022-10-25T00:03:53.531Z,83.61816406
2022-10-25T00:04:54.245Z,83.61816406
2022-10-25T00:05:54.730Z,83.72192383
2022-10-25T00:06:55.148Z,83.72192383
2022-10-25T00:07:55.614Z,83.81958008
2022-10-25T00:08:56.083Z,83.92333984
2022-10-25T00:09:56.602Z,83.67919922
2022-10-25T00:10:58.035Z,83.4777832
2022-10-25T00:11:58.539Z,83.4777832
2022-10-25T00:12:59.004Z,83.27026367
2022-10-25T00:13:59.476Z,83.06884766
2022-10-25T00:14:59.899Z,83.17260742
2022-10-25T00:16:00.452Z,82.96508789
2022-10-25T00:17:01.110Z,83.17260742
2022-10-25T00:18:01.559Z,83.37402344
2022-10-25T00:19:02.034Z,83.58154297
2022-10-25T00:20:02.445Z,83.78295898
2022-10-25T00:22:04.012Z,84.08813477
2022-10-25T00:23:04.501Z,84.19189453
2022-10-25T00:24:04.923Z,84.28955078
2022-10-25T00:25:05.369Z,84.19189453
2022-10-25T00:26:05.863Z,84.19189453
2022-10-25T00:27:06.474Z,84.19189453
2022-10-25T00:28:06.896Z,84.28955078
2022-10-25T00:29:07.405Z,84.39331055
2022-10-25T00:30:07.877Z,84.49707031
2022-10-25T00:31:09.523Z,84.49707031
2022-10-25T00:32:40.276Z,84.59472656
2022-10-25T00:33:40.754Z,84.59472656
2022-10-25T00:34:41.274Z,84.59472656
2022-10-25T00:35:41.732Z,84.59472656
2022-10-25T00:36:42.134Z,84.69848633
2022-10-25T00:37:42.625Z,84.80224609
2022-10-25T00:38:43.102Z,84.89990234
2022-10-25T00:39:43.604Z,84.89990234
2022-10-25T00:40:44.020Z,84.89990234
2022-10-25T00:41:45.265Z,84.89990234
2022-10-25T00:42:46.043Z,84.89990234
2022-10-25T00:43:46.209Z,84.80224609
2022-10-25T00:44:46.668Z,84.69848633
2022-10-25T00:45:47.140Z,84.69848633
2022-10-25T00:46:47.565Z,84.80224609
2022-10-25T00:47:48.300Z,84.89990234
2022-10-25T00:48:48.539Z,84.69848633
2022-10-25T00:49:48.992Z,84.39331055
2022-10-25T00:50:50.045Z,84.08813477
2022-10-25T00:51:51.524Z,84.08813477
2022-10-25T00:52:51.944Z,84.08813477
2022-10-25T00:53:52.419Z,83.984375
2022-10-25T00:54:53.761Z,84.08813477
2022-10-25T00:55:54.284Z,83.984375
2022-10-25T00:56:55.007Z,84.19189453
2022-10-25T00:57:56.022Z,84.28955078
2022-10-25T00:58:56.446Z,84.39331055
2022-10-25T00:59:57.062Z,84.49707031
2022-10-25T01:00:58.499Z,84.59472656
2022-10-25T01:01:59.232Z,84.59472656
2022-10-25T01:02:59.545Z,84.59472656
2022-10-25T01:04:00.744Z,84.69848633
2022-10-25T01:05:01.246Z,84.80224609
2022-10-25T01:06:01.718Z,84.80224609
2022-10-25T01:07:02.253Z,84.69848633
2022-10-25T01:08:02.761Z,84.59472656
2022-10-25T01:09:03.233Z,84.59472656
2022-10-25T01:10:03.725Z,84.59472656
2022-10-25T01:11:05.074Z,84.55810547
2022-10-25T01:12:05.571Z,84.59472656
2022-10-25T01:13:06.198Z,84.69848633
2022-10-25T01:14:06.679Z,84.59472656
2022-10-25T01:15:07.108Z,84.59472656
2022-10-25T01:16:08.670Z,84.59472656
2022-10-25T01:17:39.746Z,84.49707031
2022-10-25T01:18:40.257Z,84.49707031
2022-10-25T01:19:40.686Z,84.39331055
2022-10-25T01:20:41.097Z,84.39331055
2022-10-25T01:21:42.475Z,84.19189453
2022-10-25T01:22:43.382Z,84.19189453
2022-10-25T01:23:43.752Z,84.08813477
2022-10-25T01:24:44.732Z,83.984375
2022-10-25T01:25:45.183Z,83.984375
2022-10-25T01:26:45.781Z,83.984375
2022-10-25T01:27:46.640Z,84.08813477
2022-10-25T01:28:47.164Z,84.19189453
2022-10-25T01:29:47.659Z,84.28955078
2022-10-25T01:30:48.069Z,84.19189453
2022-10-25T01:31:49.241Z,83.984375
2022-10-25T01:32:50.072Z,83.88671875
2022-10-25T01:33:50.618Z,83.88671875
2022-10-25T01:34:51.275Z,84.08813477
2022-10-25T01:35:51.710Z,84.28955078
2022-10-25T01:36:52.141Z,84.28955078
2022-10-25T01:37:52.775Z,84.39331055
2022-10-25T01:38:53.403Z,84.53369141
2022-10-25T01:39:54.051Z,84.53369141
2022-10-25T01:40:54.521Z,84.74121094
2022-10-25T01:41:55.750Z,84.83886719
2022-10-25T01:42:56.241Z,84.94262695
2022-10-25T01:43:56.945Z,85.04638672
2022-10-25T01:44:57.669Z,85.04638672
2022-10-25T01:45:58.333Z,85.14404297
2022-10-25T01:46:58.889Z,85.04638672
2022-10-25T01:47:59.475Z,84.94262695
2022-10-25T01:48:59.910Z,85.14404297
2022-10-25T01:50:00.661Z,85.24780273
2022-10-25T01:51:01.934Z,85.24780273
2022-10-25T01:52:03.383Z,85.14404297
2022-10-25T01:53:03.926Z,85.24780273
2022-10-25T01:54:04.308Z,85.44921875
2022-10-25T01:55:05.012Z,85.44921875
2022-10-25T01:56:05.693Z,85.55297852
2022-10-25T01:57:06.890Z,85.44921875
2022-10-25T01:58:38.022Z,85.44921875
2022-10-25T01:59:38.454Z,85.44921875
2022-10-25T02:00:39.217Z,85.3515625
2022-10-25T02:01:40.911Z,85.3515625
2022-10-25T02:02:41.312Z,85.24780273
2022-10-25T02:03:41.909Z,85.14404297
2022-10-25T02:04:42.328Z,85.24780273
2022-10-25T02:05:42.815Z,85.14404297
2022-10-25T02:06:43.630Z,85.14404297
2022-10-25T02:07:44.374Z,85.24780273
2022-10-25T02:08:44.972Z,85.24780273
2022-10-25T02:09:45.402Z,85.14404297
2022-10-25T02:10:45.846Z,85.04638672
2022-10-25T02:11:47.126Z,85.04638672
2022-10-25T02:12:48.160Z,84.94262695
2022-10-25T02:13:48.458Z,84.83886719
2022-10-25T02:14:48.864Z,85.04638672
2022-10-25T02:15:49.349Z,85.14404297
2022-10-25T02:16:49.916Z,85.24780273
2022-10-25T02:17:50.634Z,85.44921875
2022-10-25T02:18:51.300Z,85.24780273
2022-10-25T02:19:51.868Z,85.14404297
2022-10-25T02:20:53.036Z,84.83886719
2022-10-25T02:21:54.032Z,84.74121094
2022-10-25T02:22:54.580Z,84.74121094
2022-10-25T02:23:55.265Z,84.74121094
2022-10-25T02:24:55.974Z,84.83886719
2022-10-25T02:25:56.383Z,84.94262695
2022-10-25T02:26:57.539Z,85.04638672
2022-10-25T02:27:58.018Z,85.14404297
2022-10-25T02:28:58.684Z,85.14404297
2022-10-25T02:29:59.356Z,85.3515625
2022-10-25T02:30:59.982Z,85.44921875
2022-10-25T02:32:01.046Z,85.24780273
2022-10-25T02:33:01.570Z,85.24780273
2022-10-25T02:34:02.285Z,85.24780273
2022-10-25T02:35:03.052Z,85.55297852
2022-10-25T02:36:03.633Z,85.75439453
2022-10-25T02:37:04.100Z,85.55297852
2022-10-25T02:38:04.527Z,85.44921875
2022-10-25T02:39:04.987Z,85.44921875
2022-10-25T02:40:05.685Z,85.44921875
2022-10-25T02:41:06.442Z,85.24780273
2022-10-25T02:42:38.055Z,85.24780273
2022-10-25T02:43:38.511Z,85.20507813
2022-10-25T02:44:39.008Z,85.04638672
2022-10-25T02:45:39.737Z,85.20507813
2022-10-25T02:46:40.385Z,85.10742188
2022-10-25T02:47:41.129Z,85.00366211
2022-10-25T02:48:41.625Z,84.80224609
2022-10-25T02:49:42.105Z,84.59472656
2022-10-25T02:50:42.738Z,84.49707031
2022-10-25T02:51:44.197Z,84.28955078
2022-10-25T02:52:45.128Z,84.39331055
2022-10-25T02:53:45.368Z,84.39331055
2022-10-25T02:54:45.793Z,84.28955078
2022-10-25T02:55:46.200Z,84.49707031
2022-10-25T02:56:46.969Z,84.59472656
2022-10-25T02:57:47.632Z,84.63745117
2022-10-25T02:58:48.235Z,84.59472656
2022-10-25T02:59:49.256Z,84.63745117
2022-10-25T03:00:49.725Z,84.63745117
2022-10-25T03:01:51.274Z,84.53369141
2022-10-25T03:02:51.806Z,84.63745117
2022-10-25T03:03:52.403Z,84.74121094
2022-10-25T03:04:53.913Z,84.53369141
2022-10-25T03:05:54.321Z,84.63745117
2022-10-25T03:06:54.788Z,84.74121094
2022-10-25T03:07:55.347Z,84.83886719
2022-10-25T03:08:55.982Z,84.83886719
2022-10-25T03:09:56.621Z,84.74121094
2022-10-25T03:10:57.080Z,84.83886719
2022-10-25T03:11:58.055Z,84.63745117
2022-10-25T03:12:58.528Z,84.63745117
2022-10-25T03:13:59.274Z,84.63745117
2022-10-25T03:14:59.949Z,84.74121094
2022-10-25T03:16:00.529Z,84.74121094
2022-10-25T03:17:00.991Z,84.74121094
2022-10-25T03:18:01.426Z,84.83886719
2022-10-25T03:19:01.994Z,84.94262695
2022-10-25T03:20:02.674Z,84.80224609
2022-10-25T03:21:03.310Z,84.28955078
2022-10-25T03:22:04.731Z,84.39331055
2022-10-25T03:23:05.159Z,84.19189453
2022-10-25T03:24:05.620Z,84.19189453
2022-10-25T03:25:06.731Z,84.69848633
2022-10-25T03:26:37.689Z,85.14404297
2022-10-25T03:27:38.143Z,85.3515625
2022-10-25T03:28:39.251Z,85.3515625
2022-10-25T03:29:39.706Z,85.04638672
2022-10-25T03:30:40.409Z,84.74121094
2022-10-25T03:31:41.053Z,84.83886719
2022-10-25T03:32:42.504Z,85.04638672
2022-10-25T03:33:42.968Z,85.14404297
2022-10-25T03:34:43.387Z,85.24780273
2022-10-25T03:35:43.974Z,85.44921875
2022-10-25T03:36:44.628Z,85.75439453
2022-10-25T03:37:45.713Z,85.96191406
2022-10-25T03:38:45.838Z,85.8581543
2022-10-25T03:39:46.305Z,85.65673828
2022-10-25T03:40:46.754Z,85.55297852
2022-10-25T03:41:47.434Z,85.44921875
2022-10-25T03:42:48.927Z,85.24780273
2022-10-25T03:43:49.489Z,85.10742188
2022-10-25T03:44:49.878Z,84.69848633
2022-10-25T03:45:50.492Z,84.59472656
2022-10-25T03:46:51.137Z,84.49707031
2022-10-25T03:47:51.742Z,84.59472656
2022-10-25T03:48:52.450Z,84.63745117
2022-10-25T03:49:53.038Z,84.59472656
2022-10-25T03:50:53.494Z,84.59472656
2022-10-25T03:51:57.125Z,84.49707031
2022-10-25T03:52:55.301Z,84.49707031
2022-10-25T03:53:55.953Z,84.59472656
2022-10-25T03:54:56.595Z,84.80224609
2022-10-25T03:55:57.112Z,84.89990234
2022-10-25T03:56:57.541Z,84.94262695
2022-10-25T03:57:58.143Z,84.94262695
2022-10-25T03:58:58.734Z,85.24780273
2022-10-25T03:59:59.395Z,85.44921875
2022-10-25T04:01:00.154Z,85.3515625
2022-10-25T04:02:00.491Z,85.24780273
2022-10-25T04:03:02.576Z,85.24780273
2022-10-25T04:04:02.446Z,85.24780273
2022-10-25T04:05:03.124Z,85.14404297
2022-10-25T04:06:03.825Z,85.14404297
2022-10-25T04:07:04.300Z,85.24780273
2022-10-25T04:08:04.801Z,85.44921875
2022-10-25T04:09:05.212Z,85.44921875
2022-10-25T04:10:06.448Z,85.55297852
2022-10-25T04:11:37.580Z,85.55297852
2022-10-25T04:12:38.850Z,85.55297852
2022-10-25T04:13:40.076Z,85.65673828
2022-10-25T04:14:40.490Z,85.65673828
2022-10-25T04:15:41.232Z,85.75439453
2022-10-25T04:16:41.937Z,85.8581543
2022-10-25T04:17:42.568Z,86.05957031
2022-10-25T04:18:43.142Z,86.05957031
2022-10-25T04:19:43.469Z,86.05957031
2022-10-25T04:20:44.060Z,86.05957031
2022-10-25T04:21:44.672Z,86.16333008
2022-10-25T04:22:45.936Z,86.16333008
2022-10-25T04:23:46.397Z,86.16333008
2022-10-25T04:24:46.842Z,86.16333008
2022-10-25T04:25:47.314Z,86.12670898
2022-10-25T04:26:48.068Z,86.22436523
2022-10-25T04:27:49.913Z,86.22436523
2022-10-25T04:28:50.534Z,86.22436523
2022-10-25T04:29:50.989Z,86.12670898
2022-10-25T04:30:51.479Z,86.22436523
2022-10-25T04:31:52.076Z,86.12670898
2022-10-25T04:32:53.431Z,86.12670898
2022-10-25T04:33:54.144Z,86.12670898
2022-10-25T04:34:54.749Z,86.02294922
2022-10-25T04:35:55.189Z,86.12670898
2022-10-25T04:36:55.664Z,86.02294922
2022-10-25T04:37:56.301Z,85.91918945
2022-10-25T04:38:57.067Z,86.12670898
2022-10-25T04:39:57.765Z,86.73706055
2022-10-25T04:40:58.267Z,86.73706055
2022-10-25T04:41:58.920Z,86.63330078
2022-10-25T04:42:59.935Z,86.63330078
2022-10-25T04:44:00.602Z,86.328125
2022-10-25T04:45:01.318Z,86.02294922
2022-10-25T04:46:01.915Z,85.81542969
2022-10-25T04:47:02.429Z,85.81542969
2022-10-25T04:48:02.852Z,85.61401367
2022-10-25T04:49:03.585Z,85.61401367
2022-10-25T04:50:04.292Z,85.61401367
2022-10-25T04:51:05.038Z,85.71777344
2022-10-25T04:52:37.044Z,85.81542969
2022-10-25T04:53:37.480Z,85.71777344
2022-10-25T04:54:38.158Z,85.71777344
2022-10-25T04:55:38.813Z,85.81542969
2022-10-25T04:56:39.544Z,85.96191406
2022-10-25T04:57:40.005Z,86.05957031
2022-10-25T04:58:40.423Z,86.05957031
2022-10-25T04:59:40.858Z,86.05957031
2022-10-25T05:00:41.663Z,86.16333008
2022-10-25T05:01:42.467Z,86.05957031
2022-10-25T05:02:43.767Z,86.16333008
2022-10-25T05:03:44.169Z,86.26708984
2022-10-25T05:04:44.633Z,86.57226563
2022-10-25T05:05:45.070Z,87.07885742
2022-10-25T05:06:45.514Z,87.24365234
2022-10-25T05:07:46.023Z,87.24365234
2022-10-25T05:08:46.422Z,87.13989258
2022-10-25T05:09:47.464Z,86.93847656
2022-10-25T05:10:48.297Z,86.328125
2022-10-25T05:11:48.927Z,86.22436523
2022-10-25T05:12:49.810Z,86.22436523
2022-10-25T05:13:50.532Z,86.43188477
2022-10-25T05:14:51.955Z,86.63330078
2022-10-25T05:15:52.387Z,86.73706055
2022-10-25T05:16:52.836Z,86.63330078
2022-10-25T05:17:53.413Z,86.63330078
2022-10-25T05:18:54.013Z,86.73706055
2022-10-25T05:19:54.547Z,86.73706055
2022-10-25T05:20:55.024Z,86.73706055
2022-10-25T05:21:55.509Z,86.8347168
2022-10-25T05:22:56.766Z,86.69433594
2022-10-25T05:24:01.440Z,86.49291992
2022-10-25T05:24:58.506Z,86.08398438
2022-10-25T05:25:58.980Z,85.88256836
2022-10-25T05:26:59.407Z,85.88256836
2022-10-25T05:27:59.867Z,85.88256836
2022-10-25T05:29:00.520Z,86.08398438
2022-10-25T05:30:01.252Z,86.22436523
2022-10-25T05:31:02.009Z,86.22436523
2022-10-25T05:32:02.415Z,86.43188477
2022-10-25T05:33:04.890Z,86.43188477
2022-10-25T05:34:04.051Z,86.73706055
2022-10-25T05:35:05.272Z,86.63330078
2022-10-25T05:36:36.188Z,86.73706055
2022-10-25T05:37:36.698Z,86.63330078
2022-10-25T05:38:37.947Z,86.73706055
2022-10-25T05:39:37.690Z,87.07885742
2022-10-25T05:40:38.346Z,87.3840332
2022-10-25T05:41:39.039Z,87.3840332
2022-10-25T05:42:39.723Z,87.68920898
2022-10-25T05:43:40.788Z,87.79296875
2022-10-25T05:44:41.225Z,87.79296875
2022-10-25T05:45:41.712Z,88.00048828
2022-10-25T05:46:42.163Z,88.2019043
2022-10-25T05:47:42.968Z,88.2019043
2022-10-25T05:48:47.486Z,88.2019043
2022-10-25T05:49:43.940Z,88.2019043
2022-10-25T05:50:44.397Z,88.2019043
2022-10-25T05:51:45.096Z,88.00048828
2022-10-25T05:52:46.945Z,88.00048828
2022-10-25T05:53:47.268Z,88.2019043
2022-10-25T05:54:48.636Z,88.09814453
2022-10-25T05:55:49.275Z,88.09814453
2022-10-25T05:56:49.884Z,88.30566406
2022-10-25T05:57:50.629Z,88.30566406
2022-10-25T05:58:51.941Z,88.30566406
2022-10-25T05:59:52.484Z,88.2019043
2022-10-25T06:00:52.964Z,88.30566406
2022-10-25T06:01:53.554Z,88.30566406
2022-10-25T06:02:54.692Z,88.00048828
2022-10-25T06:03:55.439Z,88.00048828
2022-10-25T06:04:56.119Z,88.00048828
2022-10-25T06:05:56.777Z,87.89672852
2022-10-25T06:06:57.389Z,87.79296875
2022-10-25T06:07:58.065Z,87.79296875
2022-10-25T06:08:58.794Z,87.89672852
2022-10-25T06:09:59.437Z,88.00048828
2022-10-25T06:11:00.180Z,88.09814453
2022-10-25T06:12:00.623Z,87.95776367
2022-10-25T06:13:01.609Z,87.65258789
2022-10-25T06:14:02.342Z,87.54882813
2022-10-25T06:15:02.938Z,87.44506836
2022-10-25T06:16:03.600Z,87.54882813
2022-10-25T06:17:04.087Z,87.75024414
2022-10-25T06:18:35.083Z,87.85400391
2022-10-25T06:19:35.699Z,87.54882813
2022-10-25T06:20:36.355Z,87.44506836
2022-10-25T06:21:37.140Z,87.24365234
2022-10-25T06:22:37.796Z,87.13989258
2022-10-25T06:23:39.029Z,87.24365234
2022-10-25T06:24:39.749Z,86.87744141
2022-10-25T06:25:40.332Z,87.07885742
2022-10-25T06:26:41.004Z,87.07885742
2022-10-25T06:27:41.599Z,87.18261719
2022-10-25T06:28:42.754Z,87.48779297
2022-10-25T06:29:43.191Z,87.68920898
2022-10-25T06:30:43.675Z,87.79296875
2022-10-25T06:31:44.358Z,87.68920898
2022-10-25T06:32:45.351Z,87.48779297
2022-10-25T06:33:46.268Z,87.3840332
2022-10-25T06:34:46.730Z,87.28637695
2022-10-25T06:35:47.149Z,87.28637695
2022-10-25T06:36:47.592Z,87.07885742
2022-10-25T06:37:48.033Z,86.87744141
2022-10-25T06:38:48.500Z,86.67602539
2022-10-25T06:39:48.946Z,86.57226563
2022-10-25T06:40:49.429Z,86.67602539
2022-10-25T06:41:50.074Z,86.87744141
2022-10-25T06:42:50.735Z,86.87744141
2022-10-25T06:43:51.976Z,86.77368164
2022-10-25T06:44:52.602Z,86.98120117
2022-10-25T06:45:53.016Z,86.98120117
2022-10-25T06:47:15.824Z,87.07885742
2022-10-25T06:47:54.114Z,87.18261719
2022-10-25T06:48:54.886Z,87.07885742
2022-10-25T06:49:55.550Z,87.04223633
2022-10-25T06:50:56.105Z,86.8347168
2022-10-25T06:51:56.593Z,86.8347168
2022-10-25T06:52:57.789Z,86.8347168
2022-10-25T06:53:58.786Z,86.8347168
2022-10-25T06:54:59.454Z,87.04223633
2022-10-25T06:56:04.299Z,87.04223633
2022-10-25T06:57:00.335Z,87.04223633
2022-10-25T06:58:00.771Z,86.8347168
2022-10-25T06:59:02.045Z,86.8347168
2022-10-25T07:00:02.756Z,86.73706055
2022-10-25T07:01:03.568Z,86.328125
2022-10-25T07:02:34.547Z,86.52954102
2022-10-25T07:03:34.973Z,86.63330078
2022-10-25T07:04:35.707Z,86.63330078
2022-10-25T07:05:36.374Z,86.93847656
2022-10-25T07:06:37.106Z,87.04223633
2022-10-25T07:07:37.885Z,87.24365234
2022-10-25T07:08:38.485Z,87.44506836
2022-10-25T07:09:39.094Z,87.44506836
2022-10-25T07:10:39.826Z,87.13989258
2022-10-25T07:11:40.434Z,86.93847656
2022-10-25T07:12:41.071Z,87.04223633
2022-10-25T07:13:42.055Z,86.93847656
2022-10-25T07:14:42.530Z,86.8347168
2022-10-25T07:15:43.236Z,86.93847656
2022-10-25T07:16:43.879Z,87.13989258
2022-10-25T07:17:44.780Z,87.13989258
2022-10-25T07:18:45.083Z,87.13989258
2022-10-25T07:19:45.587Z,86.93847656
2022-10-25T07:20:46.057Z,86.73706055
2022-10-25T07:21:46.750Z,86.8347168
2022-10-25T07:22:47.376Z,86.93847656
2022-10-25T07:23:48.874Z,86.93847656
2022-10-25T07:24:50.100Z,86.63330078
2022-10-25T07:25:50.871Z,86.69433594
2022-10-25T07:26:51.444Z,86.8347168
2022-10-25T07:27:52.144Z,86.7980957
2022-10-25T07:28:52.870Z,86.7980957
2022-10-25T07:29:53.474Z,86.69433594
2022-10-25T07:30:53.980Z,86.59057617
2022-10-25T07:31:55.429Z,86.49291992
2022-10-25T07:32:55.925Z,86.38916016
2022-10-25T07:33:57.086Z,86.18774414
2022-10-25T07:36:09.634Z,86.18774414
2022-10-25T07:36:58.434Z,86.08398438
2022-10-25T07:37:58.920Z,85.98022461
2022-10-25T07:38:59.374Z,85.88256836
2022-10-25T07:39:59.904Z,85.98022461
2022-10-25T07:41:00.366Z,86.18774414
2022-10-25T07:42:00.809Z,86.38916016
2022-10-25T07:43:01.263Z,86.28540039
2022-10-25T07:44:02.265Z,86.38916016
2022-10-25T07:45:02.742Z,86.38916016
2022-10-25T07:46:03.621Z,86.49291992
2022-10-25T07:47:34.297Z,86.49291992
2022-10-25T07:48:34.742Z,86.49291992
2022-10-25T07:49:35.192Z,86.2487793
2022-10-25T07:50:35.646Z,86.34643555
2022-10-25T07:51:36.123Z,86.45019531
2022-10-25T07:52:36.612Z,86.34643555
2022-10-25T07:53:37.575Z,86.2487793
2022-10-25T07:54:38.081Z,85.94360352
2022-10-25T07:55:38.443Z,85.83984375
2022-10-25T07:56:38.983Z,86.08398438
2022-10-25T07:57:39.420Z,86.45019531
2022-10-25T07:58:39.891Z,86.7980957
2022-10-25T07:59:40.321Z,86.65161133
2022-10-25T08:00:40.808Z,86.55395508
2022-10-25T08:01:41.400Z,86.75537109
2022-10-25T08:02:41.782Z,86.75537109
2022-10-25T08:03:43.091Z,86.65161133
2022-10-25T08:04:43.503Z,86.85913086
2022-10-25T08:05:43.979Z,86.95678711
2022-10-25T08:06:44.451Z,87.16430664
2022-10-25T08:07:45.400Z,87.16430664
2022-10-25T08:08:45.389Z,87.2253418
2022-10-25T08:09:45.838Z,87.32299805
2022-10-25T08:10:46.297Z,87.2253418
2022-10-25T08:11:46.776Z,87.01782227
2022-10-25T08:12:47.231Z,86.71264648
2022-10-25T08:13:48.555Z,86.61499023
2022-10-25T08:14:49.849Z,86.61499023
2022-10-25T08:15:49.471Z,86.71264648
2022-10-25T08:16:49.873Z,86.71264648
2022-10-25T08:17:50.770Z,86.92016602
2022-10-25T08:18:50.992Z,87.01782227
2022-10-25T08:19:51.549Z,87.01782227
2022-10-25T08:21:02.858Z,87.01782227
2022-10-25T08:21:52.349Z,87.01782227
2022-10-25T08:22:52.824Z,86.98120117
2022-10-25T08:23:54.063Z,86.87744141
2022-10-25T08:24:54.554Z,86.26708984
2022-10-25T08:25:54.976Z,85.96191406
2022-10-25T08:26:55.418Z,85.8581543
2022-10-25T08:27:55.917Z,86.16333008
2022-10-25T08:28:57.318Z,86.16333008
2022-10-25T08:29:57.810Z,86.16333008
2022-10-25T08:30:58.283Z,86.20605469
2022-10-25T08:31:59.291Z,86.30981445
2022-10-25T08:32:59.742Z,86.30981445
2022-10-25T08:34:01.170Z,86.4074707
2022-10-25T08:35:01.517Z,86.61499023
2022-10-25T08:36:01.961Z,86.81640625
2022-10-25T08:37:02.419Z,86.87744141
2022-10-25T08:38:33.341Z,86.98120117
2022-10-25T08:39:33.803Z,87.07885742
2022-10-25T08:40:34.302Z,86.98120117
2022-10-25T08:41:34.736Z,86.67602539
2022-10-25T08:42:35.190Z,86.46850586
2022-10-25T08:43:35.645Z,86.57226563
2022-10-25T08:44:36.063Z,86.328125
2022-10-25T08:45:36.496Z,86.22436523
2022-10-25T08:46:36.999Z,86.12670898
2022-10-25T08:47:37.439Z,86.12670898
2022-10-25T08:48:37.925Z,85.8215332
2022-10-25T08:49:38.398Z,85.51635742
2022-10-25T08:50:38.873Z,85.41259766
2022-10-25T08:51:39.303Z,85.62011719
2022-10-25T08:52:39.844Z,85.51635742
2022-10-25T08:53:40.323Z,85.41259766
2022-10-25T08:54:41.287Z,85.41259766
2022-10-25T08:55:58.376Z,85.51635742
2022-10-25T08:56:56.540Z,85.62011719
2022-10-25T08:57:42.648Z,85.41259766
2022-10-25T08:58:43.163Z,85.21118164
2022-10-25T08:59:43.602Z,85.31494141
2022-10-25T09:00:44.037Z,85.21118164
2022-10-25T09:01:44.641Z,85.00976563
2022-10-25T09:02:44.928Z,85.21118164
2022-10-25T09:03:45.385Z,85.41259766
2022-10-25T09:04:46.788Z,85.51635742
2022-10-25T09:05:47.236Z,85.41259766
2022-10-25T09:06:47.690Z,85.21118164
2022-10-25T09:07:48.375Z,85.10742188
2022-10-25T09:08:48.592Z,85.07080078
2022-10-25T09:09:49.035Z,85.07080078
2022-10-25T09:10:49.471Z,85.16845703
2022-10-25T09:11:49.910Z,85.37597656
2022-10-25T09:12:50.559Z,85.47363281
2022-10-25T09:13:51.009Z,85.57739258
2022-10-25T09:14:52.329Z,85.37597656
2022-10-25T09:15:52.798Z,85.37597656
2022-10-25T09:16:53.220Z,85.16845703
2022-10-25T09:17:53.689Z,84.96704102
2022-10-25T09:18:54.179Z,85.07080078
2022-10-25T09:19:54.603Z,85.16845703
2022-10-25T09:20:55.060Z,85.2722168
2022-10-25T09:21:55.500Z,85.2722168
2022-10-25T09:22:55.965Z,85.37597656
2022-10-25T09:23:57.066Z,85.57739258
2022-10-25T09:24:58.365Z,85.77880859
2022-10-25T09:25:58.824Z,85.88256836
2022-10-25T09:26:59.270Z,85.88256836
2022-10-25T09:27:59.699Z,85.68115234
2022-10-25T09:29:00.285Z,85.68115234
2022-10-25T09:30:05.084Z,85.47363281
2022-10-25T09:31:01.790Z,85.8215332
2022-10-25T09:32:32.604Z,85.91918945
2022-10-25T09:33:33.068Z,86.02294922
2022-10-25T09:34:34.073Z,86.328125
2022-10-25T09:35:34.559Z,86.52954102
2022-10-25T09:36:34.989Z,86.73706055
2022-10-25T09:37:35.429Z,86.8347168
2022-10-25T09:38:35.842Z,86.8347168
2022-10-25T09:39:36.327Z,86.63330078
2022-10-25T09:40:39.347Z,86.38916016
2022-10-25T09:41:37.171Z,86.38916016
2022-10-25T09:42:37.661Z,86.49291992
2022-10-25T09:43:38.118Z,86.59057617
2022-10-25T09:44:39.106Z,86.49291992
2022-10-25T09:45:41.294Z,86.18774414
2022-10-25T09:46:39.945Z,85.98022461
2022-10-25T09:47:40.408Z,86.08398438
2022-10-25T09:48:40.848Z,86.28540039
2022-10-25T09:49:41.353Z,86.18774414
2022-10-25T09:50:41.840Z,86.18774414
2022-10-25T09:51:42.370Z,85.88256836
2022-10-25T09:52:42.811Z,85.7421875
2022-10-25T09:53:44.074Z,85.83984375
2022-10-25T09:54:45.094Z,85.7421875
2022-10-25T09:55:45.555Z,85.33325195
2022-10-25T09:56:46.030Z,85.13183594
2022-10-25T09:57:46.760Z,85.02807617
2022-10-25T09:58:46.987Z,84.93041992
2022-10-25T09:59:47.488Z,84.82666016
2022-10-25T10:00:47.925Z,84.82666016
2022-10-25T10:01:49.401Z,84.52148438
2022-10-25T10:02:49.861Z,84.42382813
2022-10-25T10:03:53.937Z,84.82666016
2022-10-25T10:04:51.831Z,84.93041992
2022-10-25T10:05:52.208Z,85.02807617
2022-10-25T10:06:53.328Z,85.02807617
2022-10-25T10:07:53.788Z,84.72290039
2022-10-25T10:08:54.193Z,84.52148438
2022-10-25T10:09:55.610Z,84.52148438
2022-10-25T10:10:56.031Z,84.62524414
2022-10-25T10:11:56.461Z,84.88769531
2022-10-25T10:12:56.916Z,84.82666016
2022-10-25T10:13:57.381Z,85.02807617
2022-10-25T10:14:58.814Z,85.02807617
2022-10-25T10:15:59.227Z,85.13183594
2022-10-25T10:17:00.578Z,85.43701172
2022-10-25T10:18:01.005Z,85.49804688
2022-10-25T10:19:32.068Z,85.80322266
2022-10-25T10:20:32.616Z,85.80322266
2022-10-25T10:21:33.040Z,85.39428711
2022-10-25T10:22:33.554Z,85.29663086
2022-10-25T10:23:34.773Z,84.78393555
2022-10-25T10:24:36.069Z,84.58251953
2022-10-25T10:25:36.536Z,84.27734375
2022-10-25T10:26:37.046Z,84.58251953
2022-10-25T10:27:37.515Z,84.78393555
2022-10-25T10:28:37.969Z,84.07592773
2022-10-25T10:29:38.430Z,83.6730957
2022-10-25T10:30:38.901Z,83.50830078
2022-10-25T10:31:39.312Z,83.61206055
2022-10-25T10:33:41.315Z,82.89794922
2022-10-25T10:34:42.579Z,82.89794922
2022-10-25T10:35:43.128Z,83.30688477
2022-10-25T10:36:43.541Z,83.61206055
2022-10-25T10:37:44.193Z,83.61206055
2022-10-25T10:38:44.524Z,83.7097168
2022-10-25T10:39:44.967Z,83.91113281
2022-10-25T10:40:47.938Z,83.81347656
2022-10-25T10:41:45.810Z,83.91113281
2022-10-25T10:42:46.741Z,83.40454102
2022-10-25T10:43:46.776Z,83.00170898
2022-10-25T10:44:48.083Z,83.09936523
2022-10-25T10:45:48.567Z,83.203125
2022-10-25T10:46:49.023Z,83.50830078
2022-10-25T10:47:49.477Z,83.46557617
2022-10-25T10:48:49.945Z,83.26416016
2022-10-25T10:49:51.083Z,83.46557617
2022-10-25T10:50:51.540Z,83.56933594
2022-10-25T10:51:52.011Z,83.56933594
2022-10-25T10:52:55.134Z,83.36791992
2022-10-25T10:53:52.910Z,83.22753906
2022-10-25T10:54:54.287Z,82.81860352
2022-10-25T10:55:55.353Z,82.6171875
2022-10-25T10:56:55.797Z,82.81860352
2022-10-25T10:57:56.237Z,82.6171875
2022-10-25T10:58:56.676Z,82.51953125
2022-10-25T10:59:57.115Z,82.21435547
2022-10-25T11:00:57.559Z,82.27539063
2022-10-25T11:01:58.066Z,82.37915039
2022-10-25T11:02:58.471Z,82.47680664
2022-10-25T11:04:00.804Z,82.78198242
2022-10-25T11:05:00.081Z,82.47680664
2022-10-25T11:06:00.520Z,81.76879883
2022-10-25T11:07:31.436Z,81.06079102